This is the latest recevied weather packets stored in our database for station/object DB8NZ-11. If no packets are shown the sender has not sent any weather packets the latest 10 day(s).
| Time | Temp. | Humidity | Pressure | Rain* | Wind** | Luminosity | Snow |
|---|---|---|---|---|---|---|---|
| 1778110675 | 12.78° C | 89% | 1013.8 hPa | - | - | - | - |
| 1778109775 | 13.33° C | 89% | 1013.8 hPa | - | - | - | - |
| 1778108875 | 13.33° C | 89% | 1013.8 hPa | - | - | - | - |
| 1778107975 | 13.33° C | 84% | 1013.8 hPa | - | - | - | - |
| 1778107075 | 13.33° C | 88% | 1013.8 hPa | - | - | - | - |
| 1778106175 | 13.89° C | 85% | 1013.8 hPa | - | - | - | - |
| 1778105275 | 13.89° C | 85% | 1013.7 hPa | - | - | - | - |
| 1778104375 | 13.89° C | 82% | 1013.5 hPa | - | - | - | - |
| 1778103475 | 13.89° C | 81% | 1013.6 hPa | - | - | - | - |
| 1778102782 | 13.89° C | 78% | 1013.6 hPa | - | - | - | - |
| 1778102651 | 13.89° C | 78% | 1013.5 hPa | - | - | - | - |
| 1778102154 | 13.89° C | 77% | 1013.4 hPa | - | - | - | - |
| 1778102092 | 13.89° C | 77% | 1013.4 hPa | - | - | - | - |
| 1778101792 | 13.89° C | 78% | 1013.4 hPa | - | - | - | - |
| 1778101268 | 13.89° C | 78% | 1013.4 hPa | - | - | - | - |
| 1778101115 | 13.89° C | 79% | 1013.4 hPa | - | - | - | - |
| 1778100198 | 14.44° C | 76% | 1013.3 hPa | - | - | - | - |
| 1778099606 | 14.44° C | 74% | 1013.3 hPa | - | - | - | - |
| 1778099349 | 14.44° C | 73% | 1013.3 hPa | - | - | - | - |
| 1778098593 | 14.44° C | 75% | 1013 hPa | - | - | - | - |
| 1778098459 | 14.44° C | 74% | 1013 hPa | - | - | - | - |
| 1778097558 | 14.44° C | 72% | 1013 hPa | - | - | - | - |
| 1778097439 | 14.44° C | 72% | 1013 hPa | - | - | - | - |
| 1778096925 | 14.44° C | 74% | 1012.9 hPa | - | - | - | - |
| 1778090777 | 16.67° C | 62% | 1011.3 hPa | - | - | - | - |
* Rain since midnight (hover to see other rain measurements)
** Current wind speed in m/s (hover to see current wind gust speed)